createdAt,value
2024-01-11T00:00:22.876Z,60.93
2024-01-11T00:01:22.991Z,58.64
2024-01-11T00:02:23.124Z,60.89
2024-01-11T00:03:23.157Z,59.78
2024-01-11T00:04:23.298Z,59.71
2024-01-11T00:05:23.376Z,59.40
2024-01-11T00:06:23.472Z,59.65
2024-01-11T00:07:23.505Z,60.79
2024-01-11T00:08:23.668Z,59.86
2024-01-11T00:09:23.665Z,58.70
2024-01-11T00:10:23.761Z,58.36
2024-01-11T00:11:23.869Z,59.94
2024-01-11T00:12:23.925Z,59.08
2024-01-11T00:13:24.015Z,60.77
2024-01-11T00:14:24.128Z,57.52
2024-01-11T00:15:24.253Z,58.82
2024-01-11T00:16:24.277Z,58.46
2024-01-11T00:17:24.399Z,59.82
2024-01-11T00:18:24.485Z,58.84
2024-01-11T00:19:24.662Z,56.97
2024-01-11T00:20:24.653Z,58.19
2024-01-11T00:21:24.717Z,58.74
2024-01-11T00:22:24.795Z,57.29
2024-01-11T00:23:24.924Z,58.27
2024-01-11T00:24:24.978Z,56.06
2024-01-11T00:25:25.069Z,57.29
2024-01-11T00:26:25.208Z,57.91
2024-01-11T00:27:25.230Z,59.74
2024-01-11T00:28:25.318Z,57.67
2024-01-11T00:29:25.432Z,59.05
2024-01-11T00:30:25.535Z,57.84
2024-01-11T00:31:25.584Z,59.70
2024-01-11T00:32:25.710Z,58.71
2024-01-11T00:33:25.862Z,58.46
2024-01-11T00:34:25.917Z,58.34
2024-01-11T00:35:25.964Z,57.44
2024-01-11T00:36:26.002Z,57.25
2024-01-11T00:37:26.086Z,57.84
2024-01-11T00:38:26.182Z,57.15
2024-01-11T00:39:26.246Z,57.34
2024-01-11T00:40:26.403Z,56.69
2024-01-11T00:41:26.481Z,57.20
2024-01-11T00:42:26.486Z,57.29
2024-01-11T00:43:26.581Z,57.25
2024-01-11T00:44:26.716Z,56.06
2024-01-11T00:45:26.746Z,57.20
2024-01-11T00:46:26.823Z,56.43
2024-01-11T00:47:27.018Z,58.03
2024-01-11T00:48:27.073Z,56.97
2024-01-11T00:49:27.132Z,55.25
2024-01-11T00:50:27.218Z,56.50
2024-01-11T00:51:27.229Z,56.68
2024-01-11T00:52:27.305Z,57.77
2024-01-11T00:53:27.403Z,54.91
2024-01-11T00:54:27.497Z,55.96
2024-01-11T00:55:27.575Z,55.58
2024-01-11T00:56:27.701Z,55.44
2024-01-11T00:57:27.749Z,54.51
2024-01-11T00:58:27.825Z,55.58
2024-01-11T00:59:27.957Z,56.28
2024-01-11T01:00:27.994Z,55.38
2024-01-11T01:01:28.177Z,57.40
2024-01-11T01:02:28.231Z,57.28
2024-01-11T01:03:28.274Z,56.34
2024-01-11T01:04:28.335Z,55.71
2024-01-11T01:05:28.490Z,54.44
2024-01-11T01:06:28.541Z,55.00
2024-01-11T01:07:28.629Z,53.94
2024-01-11T01:08:28.761Z,53.04
2024-01-11T01:09:28.900Z,56.25
2024-01-11T01:10:28.942Z,56.05
2024-01-11T01:11:29.055Z,54.78
2024-01-11T01:12:29.047Z,54.27
2024-01-11T01:13:29.149Z,54.11
2024-01-11T01:14:29.234Z,53.51
2024-01-11T01:15:29.317Z,55.09
2024-01-11T01:16:29.398Z,55.18
2024-01-11T01:17:29.594Z,53.34
2024-01-11T01:18:29.625Z,54.80
2024-01-11T01:19:29.688Z,52.98
2024-01-11T01:20:29.838Z,55.85
2024-01-11T01:21:29.868Z,54.67
2024-01-11T01:22:29.956Z,56.14
2024-01-11T01:23:30.070Z,54.06
2024-01-11T01:24:30.129Z,54.72
2024-01-11T01:25:30.196Z,53.83
2024-01-11T01:26:30.346Z,53.99
2024-01-11T01:27:30.378Z,54.42
2024-01-11T01:28:30.450Z,55.01
2024-01-11T01:29:30.585Z,51.77
2024-01-11T01:30:30.637Z,53.52
2024-01-11T01:31:30.736Z,52.39
2024-01-11T01:32:30.913Z,54.64
2024-01-11T01:33:30.917Z,52.98
2024-01-11T01:34:30.975Z,54.43
2024-01-11T01:35:31.050Z,52.41
2024-01-11T01:36:31.110Z,52.89
2024-01-11T01:37:31.189Z,53.00
2024-01-11T01:38:31.328Z,53.40
2024-01-11T01:39:31.370Z,52.46
2024-01-11T01:40:31.427Z,53.94
2024-01-11T01:41:31.561Z,53.02
2024-01-11T01:42:31.590Z,53.36
2024-01-11T01:43:31.674Z,53.81
2024-01-11T01:44:31.803Z,51.94
2024-01-11T01:45:31.855Z,53.03
2024-01-11T01:46:31.992Z,52.88
2024-01-11T01:47:32.291Z,52.05
2024-01-11T01:48:32.271Z,53.04
2024-01-11T01:49:32.271Z,53.85
2024-01-11T01:50:32.326Z,52.59
2024-01-11T01:51:32.375Z,51.55
2024-01-11T01:52:32.456Z,52.91
2024-01-11T01:53:32.591Z,50.74
2024-01-11T01:54:32.626Z,51.10
2024-01-11T01:55:32.708Z,52.61
2024-01-11T01:56:32.884Z,53.10
2024-01-11T01:57:32.870Z,52.09
2024-01-11T01:58:32.958Z,53.34
2024-01-11T01:59:33.142Z,54.32
2024-01-11T02:00:33.142Z,51.16
2024-01-11T02:01:33.258Z,53.99
2024-01-11T02:02:33.427Z,51.83
2024-01-11T02:03:33.480Z,53.59
2024-01-11T02:04:33.480Z,51.69
2024-01-11T02:05:33.720Z,51.29
2024-01-11T02:06:33.738Z,54.44
2024-01-11T02:07:33.802Z,50.99
2024-01-11T02:08:33.998Z,52.27
2024-01-11T02:09:33.938Z,51.75
2024-01-11T02:10:34.919Z,51.78
2024-01-11T02:11:34.270Z,50.71
2024-01-11T02:12:34.202Z,51.26
2024-01-11T02:13:34.288Z,52.57
2024-01-11T02:14:34.468Z,52.37
2024-01-11T02:15:34.453Z,51.15
2024-01-11T02:16:34.552Z,51.45
2024-01-11T02:17:35.512Z,53.74
2024-01-11T02:18:34.846Z,51.91
2024-01-11T02:19:34.878Z,52.12
2024-01-11T02:20:34.954Z,50.70
2024-01-11T02:21:34.978Z,50.21
2024-01-11T02:22:35.079Z,51.15
2024-01-11T02:23:35.254Z,51.40
2024-01-11T02:24:35.271Z,52.42
2024-01-11T02:25:35.339Z,52.93
2024-01-11T02:26:35.544Z,52.13
2024-01-11T02:27:35.532Z,51.93
2024-01-11T02:28:35.640Z,50.80
2024-01-11T02:29:35.826Z,50.96
2024-01-11T02:30:35.829Z,52.08
2024-01-11T02:31:35.893Z,50.99
2024-01-11T02:32:36.062Z,51.50
2024-01-11T02:33:36.198Z,52.28
2024-01-11T02:34:36.287Z,52.09
2024-01-11T02:35:36.304Z,51.96
2024-01-11T02:36:36.348Z,53.00
2024-01-11T02:37:36.431Z,52.64
2024-01-11T02:38:36.590Z,52.36
2024-01-11T02:39:36.618Z,51.69
2024-01-11T02:40:36.714Z,52.17
2024-01-11T02:41:36.895Z,52.56
2024-01-11T02:42:36.955Z,53.64
2024-01-11T02:43:36.998Z,53.56
2024-01-11T02:44:37.152Z,52.33
2024-01-11T02:45:37.158Z,53.93
2024-01-11T02:46:37.249Z,51.91
2024-01-11T02:47:37.467Z,51.63
2024-01-11T02:48:37.592Z,50.61
2024-01-11T02:49:37.831Z,52.64
2024-01-11T02:50:37.674Z,51.45
2024-01-11T02:51:37.734Z,52.08
2024-01-11T02:52:37.805Z,50.11
2024-01-11T02:53:38.042Z,52.67
2024-01-11T02:54:37.972Z,51.93
2024-01-11T02:55:38.182Z,51.52
2024-01-11T02:56:38.298Z,51.82
2024-01-11T02:57:38.290Z,51.78
2024-01-11T02:58:38.323Z,52.12
2024-01-11T02:59:38.436Z,52.82
2024-01-11T03:00:38.548Z,51.36
2024-01-11T03:01:38.586Z,51.60
2024-01-11T03:02:38.845Z,50.00
2024-01-11T03:03:38.799Z,51.51
2024-01-11T03:04:38.827Z,52.00
2024-01-11T03:05:39.074Z,50.27
2024-01-11T03:06:39.062Z,51.11
2024-01-11T03:07:39.079Z,51.34
2024-01-11T03:08:39.234Z,51.01
2024-01-11T03:09:39.257Z,52.99
2024-01-11T03:10:39.347Z,52.77
2024-01-11T03:11:39.499Z,50.67
2024-01-11T03:12:39.521Z,52.06
2024-01-11T03:13:39.615Z,51.56
2024-01-11T03:14:39.687Z,53.11
2024-01-11T03:15:39.764Z,52.17
2024-01-11T03:16:39.855Z,50.93
2024-01-11T03:17:40.114Z,50.48
2024-01-11T03:18:40.079Z,52.02
2024-01-11T03:19:40.118Z,51.47
2024-01-11T03:20:40.233Z,51.80
2024-01-11T03:21:40.288Z,50.91
2024-01-11T03:22:40.365Z,52.39
2024-01-11T03:23:40.463Z,51.02
2024-01-11T03:24:40.550Z,52.07
2024-01-11T03:25:40.639Z,51.53
2024-01-11T03:26:40.823Z,50.67
2024-01-11T03:27:40.813Z,52.25
2024-01-11T03:28:40.872Z,50.92
2024-01-11T03:29:41.090Z,50.32
2024-01-11T03:30:41.101Z,51.71
2024-01-11T03:31:41.141Z,51.34
2024-01-11T03:32:41.410Z,51.17
2024-01-11T03:33:41.448Z,53.98
2024-01-11T03:34:41.391Z,51.24
2024-01-11T03:35:41.635Z,53.94
2024-01-11T03:36:41.615Z,51.60
2024-01-11T03:37:41.665Z,50.73
2024-01-11T03:38:41.755Z,52.70
2024-01-11T03:39:41.841Z,52.27
2024-01-11T03:40:41.923Z,51.74
2024-01-11T03:41:42.035Z,52.85
2024-01-11T03:42:42.114Z,52.07
2024-01-11T03:43:42.303Z,52.34
2024-01-11T03:44:42.408Z,51.93
2024-01-11T03:45:42.360Z,52.19
2024-01-11T03:46:42.462Z,52.05
2024-01-11T03:47:42.621Z,52.87
2024-01-11T03:48:42.785Z,53.54
2024-01-11T03:49:42.720Z,52.25
2024-01-11T03:50:42.828Z,52.55
2024-01-11T03:51:42.900Z,52.70
2024-01-11T03:52:42.974Z,53.18
2024-01-11T03:53:43.188Z,51.41
2024-01-11T03:54:43.152Z,52.55
2024-01-11T03:55:43.244Z,50.03
2024-01-11T03:56:43.360Z,51.11
2024-01-11T03:57:43.417Z,53.11
2024-01-11T03:58:43.495Z,50.85
2024-01-11T03:59:43.634Z,51.72
2024-01-11T04:00:43.747Z,52.84
2024-01-11T04:01:43.741Z,52.09
2024-01-11T04:02:43.902Z,51.68
2024-01-11T04:03:43.929Z,51.79
2024-01-11T04:04:44.003Z,50.85
2024-01-11T04:05:44.204Z,51.19
2024-01-11T04:06:44.210Z,52.47
2024-01-11T04:07:44.244Z,51.12
2024-01-11T04:08:44.404Z,52.23
2024-01-11T04:09:44.425Z,52.55
2024-01-11T04:10:44.525Z,52.62
2024-01-11T04:11:44.656Z,54.40
2024-01-11T04:12:44.682Z,52.66
2024-01-11T04:13:44.781Z,52.73
2024-01-11T04:14:44.897Z,51.24
2024-01-11T04:15:44.951Z,53.19
2024-01-11T04:16:45.035Z,52.57
2024-01-11T04:17:45.270Z,52.95
2024-01-11T04:18:45.289Z,53.41
2024-01-11T04:19:45.279Z,51.23
2024-01-11T04:20:45.395Z,51.71
2024-01-11T04:21:45.459Z,52.19
2024-01-11T04:22:45.547Z,50.46
2024-01-11T04:23:45.646Z,51.02
2024-01-11T04:24:45.704Z,52.04
2024-01-11T04:25:45.878Z,53.95
2024-01-11T04:26:46.534Z,51.56
2024-01-11T04:27:45.942Z,52.14
2024-01-11T04:28:46.019Z,52.19
2024-01-11T04:29:46.156Z,52.27
2024-01-11T04:30:46.219Z,51.87
2024-01-11T04:31:46.315Z,52.26
2024-01-11T04:32:46.402Z,51.10
2024-01-11T04:33:46.480Z,51.47
2024-01-11T04:34:46.498Z,51.24
2024-01-11T04:35:46.697Z,53.09
2024-01-11T04:36:46.675Z,51.86
2024-01-11T04:37:46.801Z,53.21
2024-01-11T04:38:46.935Z,51.80
2024-01-11T04:39:46.884Z,50.70
2024-01-11T04:40:46.966Z,52.39
2024-01-11T04:41:47.116Z,51.21
2024-01-11T04:42:47.120Z,51.65
2024-01-11T04:43:47.189Z,51.25
2024-01-11T04:44:47.316Z,53.33
2024-01-11T04:45:47.330Z,52.40
2024-01-11T04:46:47.417Z,52.53
2024-01-11T04:47:47.759Z,50.68
2024-01-11T04:48:47.653Z,51.42
2024-01-11T04:49:47.638Z,51.63
2024-01-11T04:50:47.749Z,51.05
2024-01-11T04:51:47.809Z,52.77
2024-01-11T04:52:47.884Z,53.53
2024-01-11T04:53:47.981Z,53.22
2024-01-11T04:54:48.032Z,51.15
2024-01-11T04:55:48.103Z,52.21
2024-01-11T04:56:48.236Z,54.50
2024-01-11T04:57:48.294Z,52.24
2024-01-11T04:58:48.348Z,52.59
2024-01-11T04:59:48.483Z,51.97
2024-01-11T05:00:55.920Z,50.00
2024-01-11T05:01:55.896Z,50.00
2024-01-11T05:02:56.039Z,50.00
2024-01-11T05:03:55.988Z,50.00
2024-01-11T05:04:56.030Z,50.00
2024-01-11T05:05:56.054Z,50.00
2024-01-11T05:06:56.106Z,52.54
2024-01-11T05:07:56.146Z,50.52
2024-01-11T05:08:56.153Z,51.54
2024-01-11T05:09:56.185Z,53.68
2024-01-11T05:10:56.265Z,50.50
2024-01-11T05:11:56.277Z,50.89
2024-01-11T05:12:56.309Z,50.12
2024-01-11T05:13:56.376Z,51.62
2024-01-11T05:14:56.367Z,52.57
2024-01-11T05:15:56.406Z,53.21
2024-01-11T05:16:56.488Z,51.83
2024-01-11T05:17:56.586Z,51.78
2024-01-11T05:18:56.622Z,51.44
2024-01-11T05:19:57.464Z,51.79
2024-01-11T05:20:56.605Z,51.96
2024-01-11T05:21:56.624Z,52.67
2024-01-11T05:22:56.709Z,51.24
2024-01-11T05:23:56.708Z,51.07
2024-01-11T05:24:56.759Z,52.01
2024-01-11T05:25:56.841Z,52.39
2024-01-11T05:26:56.825Z,52.60
2024-01-11T05:27:56.859Z,52.45
2024-01-11T05:28:56.923Z,51.02
2024-01-11T05:29:57.038Z,52.45
2024-01-11T05:30:57.094Z,50.83
2024-01-11T05:31:57.126Z,51.71
2024-01-11T05:32:57.183Z,53.17
2024-01-11T05:33:57.191Z,51.88
2024-01-11T05:34:57.239Z,52.88
2024-01-11T05:35:57.158Z,52.10
2024-01-11T05:36:58.152Z,54.00
2024-01-11T05:37:57.345Z,54.04
2024-01-11T05:38:57.389Z,53.91
2024-01-11T05:39:57.452Z,51.40
2024-01-11T05:40:57.563Z,53.49
2024-01-11T05:41:57.614Z,51.05
2024-01-11T05:42:57.674Z,52.13
2024-01-11T05:43:57.821Z,52.45
2024-01-11T05:44:57.819Z,51.11
2024-01-11T05:45:57.903Z,53.33
2024-01-11T05:46:58.013Z,53.92
2024-01-11T05:47:58.088Z,52.80
2024-01-11T05:48:58.161Z,52.66
2024-01-11T05:49:58.241Z,51.90
2024-01-11T05:50:58.297Z,52.89
2024-01-11T05:51:58.372Z,51.13
2024-01-11T05:52:58.487Z,53.32
2024-01-11T05:53:58.499Z,54.88
2024-01-11T05:54:58.643Z,52.67
2024-01-11T05:55:58.724Z,51.77
2024-01-11T05:56:58.719Z,53.50
2024-01-11T05:57:58.787Z,52.19
2024-01-11T05:58:58.850Z,53.90
2024-01-11T05:59:58.929Z,52.92
2024-01-11T06:00:59.115Z,50.00
2024-01-11T06:01:59.086Z,52.21
2024-01-11T06:02:59.168Z,52.18
2024-01-11T06:03:59.254Z,52.21
2024-01-11T06:04:59.357Z,51.62
2024-01-11T06:05:59.449Z,51.44
2024-01-11T06:06:59.489Z,51.03
2024-01-11T06:07:59.596Z,51.95
2024-01-11T06:08:59.644Z,52.11
2024-01-11T06:09:59.718Z,52.04
2024-01-11T06:11:00.045Z,52.77
2024-01-11T06:11:59.884Z,51.04
2024-01-11T06:12:59.956Z,52.42
2024-01-11T06:14:00.058Z,53.32
2024-01-11T06:15:00.141Z,50.47
2024-01-11T06:16:00.224Z,52.95
2024-01-11T06:17:00.504Z,52.14
2024-01-11T06:18:00.491Z,53.14
2024-01-11T06:19:00.515Z,51.06
2024-01-11T06:20:00.648Z,56.32
2024-01-11T06:21:00.574Z,71.71
2024-01-11T06:22:00.661Z,80.18
2024-01-11T06:23:00.825Z,84.70
2024-01-11T06:24:00.811Z,87.71
2024-01-11T06:25:00.933Z,88.81
2024-01-11T06:26:01.035Z,88.43
2024-01-11T06:27:01.068Z,88.53
2024-01-11T06:28:01.147Z,88.04
2024-01-11T06:29:01.285Z,88.59
2024-01-11T06:30:01.314Z,88.79
2024-01-11T06:31:01.506Z,87.52
2024-01-11T06:32:01.551Z,89.51
2024-01-11T06:33:01.717Z,87.84
2024-01-11T06:34:02.623Z,87.88
2024-01-11T06:35:01.715Z,87.54
2024-01-11T06:36:01.702Z,88.21
2024-01-11T06:37:01.724Z,88.10
2024-01-11T06:38:01.831Z,86.48
2024-01-11T06:39:01.803Z,86.42
2024-01-11T06:40:01.899Z,85.24
2024-01-11T06:41:01.964Z,84.32
2024-01-11T06:42:01.936Z,84.92
2024-01-11T06:43:01.963Z,83.84
2024-01-11T06:44:02.299Z,85.00
2024-01-11T06:45:02.030Z,84.09
2024-01-11T06:46:02.059Z,84.37
2024-01-11T06:47:02.114Z,83.48
2024-01-11T06:48:02.268Z,82.79
2024-01-11T06:49:02.299Z,85.00
2024-01-11T06:50:04.042Z,84.94
2024-01-11T06:51:02.743Z,82.84
2024-01-11T06:52:02.404Z,82.48
2024-01-11T06:53:02.469Z,81.69
2024-01-11T06:54:02.543Z,83.01
2024-01-11T06:55:02.611Z,82.05
2024-01-11T06:56:02.685Z,84.41
2024-01-11T06:57:02.746Z,83.27
2024-01-11T06:58:02.810Z,83.38
2024-01-11T06:59:02.923Z,81.20
2024-01-11T07:00:03.014Z,83.68
2024-01-11T07:01:03.032Z,83.72
2024-01-11T07:02:03.142Z,84.35
2024-01-11T07:03:03.154Z,82.69
2024-01-11T07:04:03.260Z,84.09
2024-01-11T07:05:03.380Z,82.86
2024-01-11T07:06:03.471Z,81.98
2024-01-11T07:07:03.423Z,84.85
2024-01-11T07:08:04.490Z,82.62
2024-01-11T07:09:03.561Z,82.64
2024-01-11T07:10:03.631Z,81.83
2024-01-11T07:11:03.744Z,81.96
2024-01-11T07:12:03.753Z,83.08
2024-01-11T07:13:03.850Z,80.91
2024-01-11T07:14:03.940Z,82.21
2024-01-11T07:15:03.969Z,81.53
2024-01-11T07:16:04.047Z,81.45
2024-01-11T07:17:04.148Z,82.27
2024-01-11T07:18:05.332Z,80.76
2024-01-11T07:19:05.088Z,82.50
2024-01-11T07:20:04.354Z,80.50
2024-01-11T07:21:04.406Z,79.86
2024-01-11T07:22:04.485Z,81.96
2024-01-11T07:23:04.629Z,82.50
2024-01-11T07:24:04.626Z,82.52
2024-01-11T07:25:04.700Z,82.59
2024-01-11T07:26:04.853Z,81.48
2024-01-11T07:27:04.889Z,81.71
2024-01-11T07:28:04.943Z,82.97
2024-01-11T07:29:05.041Z,81.19
2024-01-11T07:30:06.009Z,82.22
2024-01-11T07:31:06.060Z,80.70
2024-01-11T07:32:05.672Z,82.49
2024-01-11T07:33:05.458Z,81.67
2024-01-11T07:34:05.496Z,81.07
2024-01-11T07:35:08.597Z,82.10
2024-01-11T07:36:07.482Z,82.18
2024-01-11T07:37:05.531Z,82.18
2024-01-11T07:38:05.607Z,82.17
2024-01-11T07:39:06.430Z,82.68
2024-01-11T07:40:05.668Z,82.64
2024-01-11T07:41:05.754Z,81.52
2024-01-11T07:42:05.751Z,81.42
2024-01-11T07:43:05.790Z,82.03
2024-01-11T07:44:05.955Z,82.41
2024-01-11T07:45:05.859Z,81.55
2024-01-11T07:46:05.893Z,81.65
2024-01-11T07:47:06.044Z,81.38
2024-01-11T07:48:06.156Z,81.50
2024-01-11T07:49:06.250Z,81.66
2024-01-11T07:50:06.179Z,81.69
2024-01-11T07:51:06.239Z,82.59
2024-01-11T07:52:06.283Z,81.48
2024-01-11T07:53:06.518Z,82.11
2024-01-11T07:54:06.667Z,80.53
2024-01-11T07:55:06.499Z,81.30
2024-01-11T07:56:06.599Z,80.09
2024-01-11T07:57:06.663Z,80.36
2024-01-11T07:58:06.742Z,80.85
2024-01-11T07:59:06.870Z,82.05
2024-01-11T08:00:07.513Z,79.47
2024-01-11T08:01:06.985Z,81.58
2024-01-11T08:02:07.080Z,81.95
2024-01-11T08:03:08.035Z,82.13
2024-01-11T08:04:07.224Z,83.31
2024-01-11T08:05:07.306Z,82.55
2024-01-11T08:06:08.007Z,80.70
2024-01-11T08:07:07.506Z,80.95
2024-01-11T08:08:07.529Z,80.29
2024-01-11T08:09:07.614Z,79.73
2024-01-11T08:10:07.824Z,82.28
2024-01-11T08:11:07.727Z,81.52
2024-01-11T08:12:07.785Z,80.98
2024-01-11T08:13:07.817Z,80.53
2024-01-11T08:14:07.941Z,82.87
2024-01-11T08:15:07.970Z,81.25
2024-01-11T08:16:08.935Z,81.22
2024-01-11T08:17:08.101Z,80.43
2024-01-11T08:18:08.158Z,82.08
2024-01-11T08:19:08.258Z,82.43
2024-01-11T08:20:08.335Z,82.32
2024-01-11T08:21:08.378Z,82.32
2024-01-11T08:22:08.438Z,82.06
2024-01-11T08:23:08.543Z,80.54
2024-01-11T08:24:08.570Z,78.96
2024-01-11T08:25:08.636Z,81.03
2024-01-11T08:26:08.751Z,79.33
2024-01-11T08:27:08.747Z,79.34
2024-01-11T08:28:08.817Z,80.74
2024-01-11T08:29:08.851Z,80.17
2024-01-11T08:30:08.908Z,81.66
2024-01-11T08:31:10.072Z,81.76
2024-01-11T08:32:19.505Z,85.31
2024-01-11T08:33:10.187Z,85.41
2024-01-11T08:34:09.278Z,85.77
2024-01-11T08:35:09.201Z,86.81
2024-01-11T08:36:09.328Z,90.05
2024-01-11T08:37:09.206Z,95.73
2024-01-11T08:38:09.333Z,97.52
2024-01-11T08:39:09.289Z,100.43
2024-01-11T08:40:09.368Z,103.29
2024-01-11T08:41:09.486Z,104.07
2024-01-11T08:42:09.539Z,109.66
2024-01-11T08:43:10.531Z,109.35
2024-01-11T08:44:09.749Z,114.42
2024-01-11T08:45:09.811Z,119.39
2024-01-11T08:46:09.898Z,124.31
2024-01-11T08:47:10.775Z,127.34
2024-01-11T08:48:10.234Z,131.72
2024-01-11T08:49:10.366Z,134.32
2024-01-11T08:50:10.270Z,138.13
2024-01-11T08:51:10.313Z,142.01
2024-01-11T08:52:10.997Z,145.01
2024-01-11T08:53:10.460Z,149.88
2024-01-11T08:54:10.487Z,157.75
2024-01-11T08:55:10.566Z,170.73
2024-01-11T08:56:10.641Z,177.02
2024-01-11T08:57:10.687Z,182.99
2024-01-11T08:58:10.728Z,190.01
2024-01-11T08:59:10.801Z,198.99
2024-01-11T09:00:10.845Z,199.56
2024-01-11T09:01:10.926Z,199.57
2024-01-11T09:02:15.525Z,199.92
2024-01-11T09:03:12.007Z,200.20
2024-01-11T09:04:11.027Z,201.75
2024-01-11T09:05:11.056Z,205.13
2024-01-11T09:06:11.062Z,212.73
2024-01-11T09:07:11.064Z,223.73
2024-01-11T09:08:11.189Z,210.50
2024-01-11T09:09:11.108Z,200.00
2024-01-11T09:10:11.133Z,198.60
2024-01-11T09:11:11.193Z,200.00
2024-01-11T09:12:11.182Z,199.52
2024-01-11T09:13:12.364Z,198.40
2024-01-11T09:14:11.254Z,199.38
2024-01-11T09:15:11.263Z,198.71
2024-01-11T09:16:11.289Z,193.21
2024-01-11T09:17:11.398Z,194.61
2024-01-11T09:18:11.546Z,191.15
2024-01-11T09:19:11.519Z,184.35
2024-01-11T09:20:11.484Z,181.62
2024-01-11T09:21:11.417Z,171.95
2024-01-11T09:22:11.796Z,164.43
2024-01-11T09:23:11.513Z,160.53
2024-01-11T09:24:11.555Z,156.67
2024-01-11T09:25:11.617Z,157.09
2024-01-11T09:26:11.740Z,150.24
2024-01-11T09:27:11.802Z,145.29
2024-01-11T09:28:11.851Z,142.94
2024-01-11T09:29:11.950Z,136.45
2024-01-11T09:30:11.990Z,133.41
2024-01-11T09:31:12.038Z,134.51
2024-01-11T09:32:12.156Z,134.77
2024-01-11T09:33:12.380Z,138.38
2024-01-11T09:34:12.390Z,138.90
2024-01-11T09:35:14.994Z,143.90
2024-01-11T09:36:12.296Z,143.96
2024-01-11T09:37:12.559Z,144.44
2024-01-11T09:38:12.320Z,144.37
2024-01-11T09:39:13.189Z,146.40
2024-01-11T09:40:12.445Z,152.21
2024-01-11T09:41:14.656Z,158.39
2024-01-11T09:42:12.498Z,158.59
2024-01-11T09:43:12.238Z,159.82
2024-01-11T09:44:12.254Z,162.29
2024-01-11T09:45:12.187Z,167.04
2024-01-11T09:46:12.211Z,172.71
2024-01-11T09:47:15.237Z,177.47
2024-01-11T09:48:12.325Z,177.54
2024-01-11T09:49:12.142Z,178.25
2024-01-11T09:50:12.031Z,180.66
2024-01-11T09:51:11.973Z,186.12
2024-01-11T09:52:12.040Z,195.86
2024-01-11T09:53:14.572Z,199.37
2024-01-11T09:54:11.816Z,198.87
2024-01-11T09:55:11.765Z,200.00
2024-01-11T09:56:11.853Z,200.16
2024-01-11T09:57:11.679Z,200.00
2024-01-11T09:58:11.608Z,199.67
2024-01-11T09:59:11.889Z,199.95
2024-01-11T10:00:11.490Z,197.65
2024-01-11T10:01:11.516Z,195.55
2024-01-11T10:02:11.501Z,191.36
2024-01-11T10:03:11.379Z,188.30
2024-01-11T10:04:11.425Z,185.58
2024-01-11T10:05:11.824Z,183.41
2024-01-11T10:06:12.345Z,181.93
2024-01-11T10:07:11.318Z,180.45
2024-01-11T10:08:11.295Z,177.82
2024-01-11T10:09:11.293Z,177.60
2024-01-11T10:10:11.249Z,173.75
2024-01-11T10:11:11.264Z,168.92
2024-01-11T10:12:11.234Z,166.38
2024-01-11T10:13:11.322Z,165.25
2024-01-11T10:14:12.078Z,171.25
2024-01-11T10:15:11.515Z,175.95
2024-01-11T10:16:11.189Z,182.86
2024-01-11T10:17:14.957Z,188.53
2024-01-11T10:18:12.249Z,188.76
2024-01-11T10:19:11.175Z,190.21
2024-01-11T10:20:11.235Z,193.70
2024-01-11T10:21:11.085Z,199.75
2024-01-11T10:22:10.914Z,208.59
2024-01-11T10:23:10.863Z,199.93
2024-01-11T10:24:12.497Z,199.35
2024-01-11T10:25:10.751Z,198.66
2024-01-11T10:26:10.715Z,196.75
2024-01-11T10:27:10.629Z,193.56
2024-01-11T10:28:10.570Z,192.61
2024-01-11T10:29:11.193Z,187.73
2024-01-11T10:30:10.485Z,182.04
2024-01-11T10:31:10.423Z,176.85
2024-01-11T10:32:10.426Z,170.05
2024-01-11T10:33:10.507Z,165.34
2024-01-11T10:34:11.347Z,162.58
2024-01-11T10:35:10.294Z,159.64
2024-01-11T10:36:10.286Z,155.27
2024-01-11T10:37:10.161Z,153.07
2024-01-11T10:38:10.159Z,149.80
2024-01-11T10:39:10.067Z,146.09
2024-01-11T10:40:10.020Z,144.31
2024-01-11T10:41:10.026Z,141.70
2024-01-11T10:42:09.908Z,137.24
2024-01-11T10:43:09.862Z,132.77
2024-01-11T10:44:09.835Z,132.31
2024-01-11T10:45:09.850Z,134.76
2024-01-11T10:46:09.700Z,132.69
2024-01-11T10:47:10.629Z,130.51
2024-01-11T10:48:09.819Z,127.20
2024-01-11T10:49:09.639Z,122.90
2024-01-11T10:50:09.728Z,120.25
2024-01-11T10:51:09.643Z,116.58
2024-01-11T10:52:09.740Z,113.29
2024-01-11T10:53:09.843Z,110.15
2024-01-11T10:54:09.740Z,108.68
2024-01-11T10:55:09.788Z,107.32
2024-01-11T10:56:10.100Z,106.68
2024-01-11T10:57:09.860Z,106.08
2024-01-11T10:58:09.888Z,104.34
2024-01-11T10:59:09.935Z,105.57
2024-01-11T11:00:10.604Z,104.78
2024-01-11T11:01:10.089Z,103.91
2024-01-11T11:02:10.632Z,105.41
2024-01-11T11:03:10.377Z,107.08
2024-01-11T11:04:10.254Z,106.38
2024-01-11T11:05:10.344Z,107.45
2024-01-11T11:06:10.442Z,108.30
2024-01-11T11:07:10.354Z,107.37
2024-01-11T11:08:10.402Z,109.03
2024-01-11T11:09:10.419Z,107.84
2024-01-11T11:10:10.477Z,111.35
2024-01-11T11:11:10.480Z,111.73
2024-01-11T11:12:10.467Z,111.36
2024-01-11T11:13:10.495Z,111.66
2024-01-11T11:14:10.586Z,112.21
2024-01-11T11:15:10.603Z,112.27
2024-01-11T11:16:10.678Z,113.71
2024-01-11T11:17:10.720Z,114.83
2024-01-11T11:18:10.754Z,115.15
2024-01-11T11:19:10.843Z,116.01
2024-01-11T11:20:10.913Z,114.44
2024-01-11T11:21:10.957Z,115.29
2024-01-11T11:22:11.039Z,114.23
2024-01-11T11:23:11.242Z,114.39
2024-01-11T11:24:11.188Z,115.13
2024-01-11T11:25:11.330Z,115.35
2024-01-11T11:26:11.426Z,115.15
2024-01-11T11:27:11.435Z,116.06
2024-01-11T11:28:11.523Z,114.41
2024-01-11T11:29:11.656Z,113.47
2024-01-11T11:30:11.743Z,112.86
2024-01-11T11:31:11.810Z,112.57
2024-01-11T11:32:11.966Z,112.84
2024-01-11T11:33:12.468Z,111.39
2024-01-11T11:34:12.059Z,111.76
2024-01-11T11:35:12.113Z,111.23
2024-01-11T11:36:12.125Z,110.24
2024-01-11T11:37:12.162Z,110.49
2024-01-11T11:38:12.236Z,110.03
2024-01-11T11:39:12.297Z,110.03
2024-01-11T11:40:12.362Z,108.56
2024-01-11T11:41:12.522Z,108.43
2024-01-11T11:42:12.619Z,108.43
2024-01-11T11:43:12.738Z,109.11
2024-01-11T11:44:12.789Z,106.80
2024-01-11T11:45:12.827Z,108.25
2024-01-11T11:46:12.846Z,106.78
2024-01-11T11:47:12.890Z,105.97
2024-01-11T11:48:12.984Z,105.53
2024-01-11T11:49:13.009Z,105.64
2024-01-11T11:50:13.181Z,104.57
2024-01-11T11:51:14.954Z,103.38
2024-01-11T11:52:13.111Z,103.71
2024-01-11T11:53:13.357Z,104.30
2024-01-11T11:54:13.185Z,103.16
2024-01-11T11:55:13.241Z,103.32
2024-01-11T11:56:13.438Z,101.44
2024-01-11T11:57:13.339Z,103.23
2024-01-11T11:58:13.278Z,101.55
2024-01-11T11:59:13.480Z,100.80
2024-01-11T12:00:13.415Z,98.86
2024-01-11T12:01:13.389Z,100.43
2024-01-11T12:02:13.427Z,100.77
2024-01-11T12:03:13.414Z,100.96
2024-01-11T12:04:13.516Z,100.22
2024-01-11T12:05:13.622Z,99.82
2024-01-11T12:06:13.572Z,96.35
2024-01-11T12:07:14.105Z,97.76
2024-01-11T12:08:13.571Z,100.81
2024-01-11T12:09:13.534Z,98.47
2024-01-11T12:10:13.586Z,96.99
2024-01-11T12:11:13.650Z,94.37
2024-01-11T12:12:15.975Z,97.07
2024-01-11T12:13:13.621Z,97.09
2024-01-11T12:14:13.666Z,97.36
2024-01-11T12:15:13.665Z,97.07
2024-01-11T12:16:13.695Z,98.25
2024-01-11T12:17:13.756Z,95.68
2024-01-11T12:18:13.841Z,98.37
2024-01-11T12:19:13.918Z,98.07
2024-01-11T12:20:13.831Z,98.45
2024-01-11T12:21:13.830Z,98.84
2024-01-11T12:22:13.865Z,99.87
2024-01-11T12:23:13.876Z,99.78
2024-01-11T12:24:13.900Z,99.45
2024-01-11T12:25:13.911Z,103.11
2024-01-11T12:26:14.883Z,106.12
2024-01-11T12:27:13.989Z,105.49
2024-01-11T12:28:14.006Z,107.08
2024-01-11T12:29:14.063Z,110.91
2024-01-11T12:30:14.660Z,109.98
2024-01-11T12:31:14.445Z,112.41
2024-01-11T12:32:14.124Z,115.11
2024-01-11T12:33:14.340Z,117.87
2024-01-11T12:34:14.275Z,114.51
2024-01-11T12:35:14.217Z,118.41
2024-01-11T12:36:14.198Z,121.29
2024-01-11T12:37:14.217Z,120.47
2024-01-11T12:38:14.241Z,121.66
2024-01-11T12:39:14.253Z,126.46
2024-01-11T12:40:14.295Z,125.77
2024-01-11T12:41:14.327Z,129.33
2024-01-11T12:42:14.314Z,128.09
2024-01-11T12:43:14.333Z,129.09
2024-01-11T12:44:14.388Z,132.30
2024-01-11T12:45:14.385Z,133.67
2024-01-11T12:46:14.406Z,133.26